Time;durP1;ratioP1;P1;durP2;ratioP2;P2;SDS_P1;SDS_P2;PMS_P1;PMS_P2;Temp;Humidity;BMP_temperature;BMP_pressure;BME280_temperature;BME280_humidity;BME280_pressure;Samples;Min_cycle;Max_cycle;Signal;HPM_P1;HPM_P2
2023/01/27 00:01:08;;;;;;;23.00;11.85;;;-0.80;99.90;;;;;;4951724;28;20063;-77
2023/01/27 00:03:33;;;;;;;23.90;11.80;;;-0.80;99.90;;;;;;4946975;28;20059;-78
2023/01/27 00:05:59;;;;;;;25.05;11.75;;;-0.80;99.90;;;;;;4948895;28;20043;-77
2023/01/27 00:08:26;;;;;;;22.60;11.32;;;-0.80;99.90;;;;;;4947953;28;20031;-77
2023/01/27 00:13:25;;;;;;;22.15;11.15;;;-0.80;99.90;;;;;;4953596;28;20023;-77
2023/01/27 00:13:43;;;;;;;22.52;10.25;;;-0.80;99.90;;;;;;4950142;28;20039;-76
2023/01/27 00:16:08;;;;;;;21.35;9.75;;;-0.80;99.90;;;;;;4947815;28;20207;-77
2023/01/27 00:18:34;;;;;;;21.48;10.68;;;-0.80;99.90;;;;;;4948555;28;20034;-77
2023/01/27 00:26:28;;;;;;;18.73;9.98;;;-0.90;99.90;;;;;;4947795;28;20115;-77
2023/01/27 00:28:54;;;;;;;23.98;10.25;;;-0.90;99.90;;;;;;4949384;28;20106;-77
2023/01/27 00:34:10;;;;;;;21.75;10.57;;;-0.90;99.90;;;;;;4947761;28;20408;-77
2023/01/27 00:36:37;;;;;;;23.30;11.45;;;-0.90;99.90;;;;;;4950053;28;20027;-77
2023/01/27 00:39:05;;;;;;;20.85;10.27;;;-0.90;99.90;;;;;;4947335;28;20023;-77
2023/01/27 00:41:32;;;;;;;25.35;10.95;;;-1.00;99.90;;;;;;4950478;28;20015;-77
2023/01/27 00:43:58;;;;;;;20.83;10.95;;;-1.00;99.90;;;;;;4948247;28;20034;-77
2023/01/27 00:46:24;;;;;;;21.10;10.52;;;-1.00;99.90;;;;;;4945204;28;20031;-77
2023/01/27 00:48:51;;;;;;;24.55;12.13;;;-1.00;99.90;;;;;;4948472;28;20023;-77
2023/01/27 00:51:17;;;;;;;21.35;10.73;;;-1.00;99.90;;;;;;4950286;28;20027;-77
2023/01/27 00:53:44;;;;;;;20.80;10.65;;;-1.00;99.90;;;;;;4950599;28;20088;-77
2023/01/27 00:56:10;;;;;;;21.90;11.20;;;-1.00;99.90;;;;;;4949685;28;20071;-77
2023/01/27 00:58:36;;;;;;;25.73;12.70;;;-1.00;99.90;;;;;;4949872;28;20024;-77
2023/01/27 01:01:04;;;;;;;24.27;11.48;;;-1.00;99.90;;;;;;4949340;28;20635;-77
2023/01/27 01:03:32;;;;;;;23.80;12.40;;;-0.90;99.90;;;;;;4958112;28;20039;-77
2023/01/27 01:06:00;;;;;;;22.50;10.43;;;-0.90;99.90;;;;;;4950963;28;20444;-77
2023/01/27 01:08:26;;;;;;;25.75;12.18;;;-0.90;99.90;;;;;;4947678;28;20034;-77
2023/01/27 01:10:51;;;;;;;24.40;11.05;;;-0.90;99.90;;;;;;4949287;28;20054;-77
2023/01/27 01:13:18;;;;;;;22.77;11.38;;;-0.90;99.90;;;;;;4949766;28;20030;-77
2023/01/27 01:15:43;;;;;;;27.80;13.13;;;-0.90;99.90;;;;;;4961181;28;20039;-77
2023/01/27 01:18:10;;;;;;;28.30;14.38;;;-0.90;99.90;;;;;;4949983;28;20024;-77
2023/01/27 01:20:41;;;;;;;25.00;12.88;;;-0.80;99.90;;;;;;4947923;28;20075;-77
2023/01/27 01:23:08;;;;;;;27.55;11.65;;;-0.80;99.90;;;;;;4949106;28;20035;-77
2023/01/27 01:25:34;;;;;;;26.38;12.68;;;-0.80;99.90;;;;;;4950150;28;20038;-77
2023/01/27 01:28:01;;;;;;;25.30;11.45;;;-0.80;99.90;;;;;;4957576;28;20496;-77
2023/01/27 01:30:27;;;;;;;28.40;12.50;;;-0.80;99.90;;;;;;4949731;28;20035;-77
2023/01/27 01:32:53;;;;;;;23.85;11.98;;;-0.80;99.90;;;;;;4945114;28;20465;-77
2023/01/27 01:35:20;;;;;;;27.92;12.32;;;-0.80;99.90;;;;;;4951310;28;20058;-77
2023/01/27 01:37:46;;;;;;;28.70;14.45;;;-0.80;99.90;;;;;;4949840;28;20031;-77
2023/01/27 01:40:12;;;;;;;25.42;12.32;;;-0.80;99.90;;;;;;4951163;28;20031;-77
2023/01/27 01:42:50;;;;;;;29.48;14.55;;;-0.80;99.90;;;;;;4953046;28;20034;-77
2023/01/27 01:45:31;;;;;;;25.50;12.50;;;-0.80;99.90;;;;;;4947951;28;20023;-77
2023/01/27 01:48:07;;;;;;;27.27;13.68;;;-0.80;99.90;;;;;;4948184;28;20065;-76
2023/01/27 01:50:35;;;;;;;27.65;12.63;;;-0.80;99.90;;;;;;4947339;28;20556;-77
2023/01/27 01:53:03;;;;;;;26.38;14.13;;;-0.80;99.90;;;;;;4953074;28;20027;-77
2023/01/27 01:55:31;;;;;;;29.77;13.98;;;-0.80;99.90;;;;;;4951210;28;20484;-77
2023/01/27 01:57:57;;;;;;;30.98;12.70;;;-0.70;99.90;;;;;;4949198;28;20042;-76
2023/01/27 02:00:24;;;;;;;24.92;12.82;;;-0.70;99.90;;;;;;4949125;28;20259;-77
2023/01/27 02:02:50;;;;;;;28.80;14.07;;;-0.80;99.90;;;;;;4950272;28;20039;-77
2023/01/27 02:05:26;;;;;;;29.98;14.02;;;-0.80;99.90;;;;;;4950692;28;20036;-77
2023/01/27 02:07:57;;;;;;;26.98;13.27;;;-0.80;99.90;;;;;;4962329;28;20062;-77
2023/01/27 02:10:23;;;;;;;28.38;12.90;;;-0.80;99.90;;;;;;4942508;28;20028;-77
2023/01/27 02:12:49;;;;;;;25.63;12.05;;;-0.80;99.90;;;;;;4951130;28;20054;-77
2023/01/27 02:15:15;;;;;;;29.30;13.27;;;-0.90;99.90;;;;;;4963443;28;20039;-77
2023/01/27 02:17:41;;;;;;;35.42;15.63;;;-0.90;99.90;;;;;;4948918;28;20031;-77
2023/01/27 02:20:25;;;;;;;28.77;13.65;;;-0.90;99.90;;;;;;4947240;28;20417;-77
2023/01/27 02:23:09;;;;;;;26.83;12.20;;;-0.90;99.90;;;;;;4947449;28;20023;-77
2023/01/27 02:25:35;;;;;;;33.53;14.82;;;-0.90;99.90;;;;;;4946003;28;20027;-77
2023/01/27 02:28:06;;;;;;;30.05;13.65;;;-0.90;99.90;;;;;;4947170;28;20153;-77
2023/01/27 02:30:33;;;;;;;25.50;12.75;;;-0.90;99.90;;;;;;4945747;28;20050;-77
2023/01/27 02:32:58;;;;;;;28.42;13.27;;;-0.90;99.90;;;;;;4948172;28;20035;-77
2023/01/27 02:35:38;;;;;;;25.33;12.18;;;-0.90;99.90;;;;;;4943587;28;20147;-77
2023/01/27 02:38:06;;;;;;;25.20;11.43;;;-0.80;99.90;;;;;;4945114;28;20068;-77
2023/01/27 02:40:33;;;;;;;27.48;11.95;;;-0.90;99.90;;;;;;4947412;28;20023;-77
2023/01/27 02:42:59;;;;;;;26.48;13.07;;;-0.90;99.90;;;;;;4945218;28;20027;-78
2023/01/27 02:45:25;;;;;;;33.15;14.18;;;-0.90;99.90;;;;;;4946763;28;20441;-77
2023/01/27 02:47:51;;;;;;;27.60;13.13;;;-0.90;99.90;;;;;;4942972;28;20027;-78
2023/01/27 02:50:17;;;;;;;27.63;12.57;;;-0.90;99.90;;;;;;4949634;28;20035;-79
2023/01/27 02:52:42;;;;;;;30.20;13.88;;;-0.90;99.90;;;;;;4945510;28;20110;-78
2023/01/27 02:55:09;;;;;;;27.10;13.07;;;-0.80;99.90;;;;;;4947785;28;20039;-78
2023/01/27 02:57:34;;;;;;;28.20;12.70;;;-0.80;99.90;;;;;;4947637;28;20477;-78
2023/01/27 03:00:00;;;;;;;28.85;13.40;;;-0.80;99.90;;;;;;4946786;28;20036;-78
2023/01/27 03:02:29;;;;;;;23.98;12.93;;;-0.70;99.90;;;;;;4943516;28;20098;-78
2023/01/27 03:04:55;;;;;;;23.73;11.00;;;-0.70;99.90;;;;;;4948571;28;20110;-79
2023/01/27 03:07:21;;;;;;;20.52;10.38;;;-0.80;99.90;;;;;;4946402;28;20070;-78
2023/01/27 03:09:47;;;;;;;23.88;11.63;;;-0.80;99.90;;;;;;4948481;28;20073;-79
2023/01/27 03:12:21;;;;;;;22.40;10.50;;;-0.80;99.90;;;;;;4952753;28;20520;-78
2023/01/27 03:20:18;;;;;;;30.35;13.35;;;-0.90;99.90;;;;;;4951729;28;20491;-78
2023/01/27 03:22:44;;;;;;;24.35;10.38;;;-0.90;99.90;;;;;;4948516;28;20023;-78
2023/01/27 03:25:10;;;;;;;27.95;13.10;;;-0.90;99.90;;;;;;4951667;28;20435;-78
2023/01/27 03:27:36;;;;;;;25.23;12.63;;;-0.90;99.90;;;;;;4949463;28;20540;-78
2023/01/27 03:30:03;;;;;;;23.85;11.25;;;-0.90;99.90;;;;;;4954577;28;20070;-78
2023/01/27 03:32:30;;;;;;;25.85;12.50;;;-0.80;99.90;;;;;;4944628;28;20090;-79
2023/01/27 03:34:56;;;;;;;25.33;12.68;;;-0.80;99.90;;;;;;4945999;28;20031;-77
2023/01/27 03:48:21;;;;;;;25.60;13.23;;;-0.80;99.90;;;;;;4948031;28;20123;-78
2023/01/27 03:50:52;;;;;;;23.90;11.48;;;-0.80;99.90;;;;;;4946976;28;20109;-78
2023/01/27 03:53:19;;;;;;;24.42;12.57;;;-0.80;99.90;;;;;;4952011;28;20476;-78
2023/01/27 03:55:45;;;;;;;27.33;12.10;;;-0.80;99.90;;;;;;4952035;28;20051;-78
2023/01/27 03:58:22;;;;;;;30.33;13.43;;;-0.80;99.90;;;;;;4950694;28;20419;-78
2023/01/27 04:00:52;;;;;;;27.75;12.43;;;-0.80;99.90;;;;;;4956970;28;20107;-78
2023/01/27 04:08:55;;;;;;;29.60;13.48;;;-0.80;99.90;;;;;;4948657;28;20106;-78
2023/01/27 04:14:06;;;;;;;24.85;11.95;;;-0.80;99.90;;;;;;4947582;28;20038;-78
2023/01/27 04:16:34;;;;;;;25.27;12.18;;;-0.80;99.90;;;;;;4943220;28;20050;-78
2023/01/27 04:19:00;;;;;;;29.90;14.52;;;-0.80;99.90;;;;;;4952149;28;20503;-78
2023/01/27 04:21:25;;;;;;;30.05;13.50;;;-0.80;99.90;;;;;;4950212;28;20043;-77
2023/01/27 04:23:52;;;;;;;32.28;15.02;;;-0.90;99.90;;;;;;4952413;28;20039;-78
2023/01/27 04:26:18;;;;;;;25.63;12.82;;;-0.80;99.90;;;;;;4947659;28;20520;-79
2023/01/27 04:28:43;;;;;;;27.20;13.05;;;-0.80;99.90;;;;;;4952139;28;20035;-78
2023/01/27 04:31:09;;;;;;;26.75;13.35;;;-0.90;99.90;;;;;;4951843;28;20100;-79
2023/01/27 04:33:34;;;;;;;25.75;12.30;;;-0.90;99.90;;;;;;4954440;28;20058;-79
2023/01/27 04:36:00;;;;;;;28.48;14.15;;;-0.90;99.90;;;;;;4951130;28;20031;-78
2023/01/27 04:38:26;;;;;;;28.10;12.88;;;-0.90;99.90;;;;;;4950847;28;20054;-79
2023/01/27 04:40:51;;;;;;;30.00;13.40;;;-0.90;99.90;;;;;;4944725;28;20055;-78
2023/01/27 04:43:17;;;;;;;27.42;13.60;;;-0.90;99.90;;;;;;4950181;28;20309;-78
2023/01/27 04:45:43;;;;;;;29.25;14.02;;;-0.90;99.90;;;;;;4947303;28;20464;-78
2023/01/27 04:48:08;;;;;;;26.95;12.45;;;-0.90;99.90;;;;;;4950513;28;20034;-78
2023/01/27 04:50:34;;;;;;;26.60;11.80;;;-0.80;99.90;;;;;;4949514;28;20069;-79
2023/01/27 04:52:59;;;;;;;30.08;14.20;;;-0.80;99.90;;;;;;4947875;28;20458;-79
2023/01/27 04:55:26;;;;;;;27.83;13.65;;;-0.80;99.90;;;;;;4948693;28;20090;-78
2023/01/27 04:57:52;;;;;;;27.33;13.75;;;-0.80;99.90;;;;;;4950627;28;20031;-79
2023/01/27 05:00:18;;;;;;;30.73;13.88;;;-0.70;99.90;;;;;;4949694;28;20396;-78
2023/01/27 05:02:44;;;;;;;30.85;13.68;;;-0.70;99.90;;;;;;4953769;28;20031;-78
2023/01/27 05:05:10;;;;;;;33.17;16.17;;;-0.70;99.90;;;;;;4954414;28;20023;-78
2023/01/27 05:07:35;;;;;;;29.73;14.73;;;-0.70;99.90;;;;;;4951663;28;20044;-79
2023/01/27 05:10:01;;;;;;;33.38;14.93;;;-0.70;99.90;;;;;;4949526;28;20035;-78
2023/01/27 05:12:26;;;;;;;30.27;13.80;;;-0.70;99.90;;;;;;4951073;28;20035;-78
2023/01/27 05:14:52;;;;;;;31.38;15.00;;;-0.70;99.90;;;;;;4965617;28;20061;-78
2023/01/27 05:17:18;;;;;;;32.35;14.93;;;-0.80;99.90;;;;;;4951765;28;20042;-78
2023/01/27 05:19:43;;;;;;;37.60;15.52;;;-0.80;99.90;;;;;;4951156;28;20035;-78
2023/01/27 05:22:10;;;;;;;34.05;15.02;;;-0.80;99.90;;;;;;4951550;28;20147;-78
2023/01/27 05:24:37;;;;;;;29.05;14.38;;;-0.80;99.90;;;;;;4945077;28;20118;-78
2023/01/27 05:27:03;;;;;;;31.98;15.93;;;-0.80;99.90;;;;;;4946498;28;20031;-78
2023/01/27 05:29:29;;;;;;;31.38;15.38;;;-0.80;99.90;;;;;;4948921;28;21495;-78
2023/01/27 05:31:54;;;;;;;33.10;15.55;;;-0.90;99.90;;;;;;4948375;28;20039;-78
2023/01/27 05:34:20;;;;;;;33.70;15.85;;;-0.90;99.90;;;;;;4953028;28;20488;-78
2023/01/27 05:36:46;;;;;;;31.85;14.70;;;-0.90;99.90;;;;;;4948690;28;20031;-78
2023/01/27 05:39:11;;;;;;;33.67;13.52;;;-0.90;99.90;;;;;;4947169;28;20155;-78
2023/01/27 05:41:37;;;;;;;31.60;14.73;;;-0.90;99.90;;;;;;4965095;28;20039;-81
2023/01/27 05:44:03;;;;;;;30.27;14.07;;;-1.00;99.90;;;;;;4948965;28;20027;-80
2023/01/27 05:46:31;;;;;;;26.80;12.93;;;-1.00;99.90;;;;;;4949313;28;20058;-80
2023/01/27 05:49:00;;;;;;;27.98;13.32;;;-1.00;99.90;;;;;;4949036;28;20113;-80
2023/01/27 05:51:29;;;;;;;26.85;13.70;;;-1.00;99.90;;;;;;4946409;28;20043;-78
2023/01/27 05:53:55;;;;;;;31.67;13.60;;;-0.90;99.90;;;;;;4951768;28;20054;-77
2023/01/27 05:56:22;;;;;;;30.08;12.55;;;-0.90;99.90;;;;;;4917047;28;20468;-77
2023/01/27 05:58:47;;;;;;;29.73;14.02;;;-0.90;99.90;;;;;;4927575;29;20473;-77
2023/01/27 06:01:18;;;;;;;31.10;14.20;;;-0.90;99.90;;;;;;4929131;29;20050;-77
2023/01/27 06:03:44;;;;;;;30.77;14.57;;;-0.90;99.90;;;;;;4941210;28;20036;-76
2023/01/27 06:06:11;;;;;;;32.17;14.25;;;-0.80;99.90;;;;;;4927158;29;20393;-77
2023/01/27 06:08:37;;;;;;;32.47;14.68;;;-0.80;99.90;;;;;;4926290;29;20571;-78
2023/01/27 06:11:04;;;;;;;30.42;15.15;;;-0.80;99.90;;;;;;4927023;29;20043;-78
2023/01/27 06:13:30;;;;;;;33.28;13.80;;;-0.90;99.90;;;;;;4927982;29;20065;-77
2023/01/27 06:15:56;;;;;;;33.80;13.57;;;-0.90;99.90;;;;;;4923722;29;20494;-78
2023/01/27 06:18:22;;;;;;;29.17;13.13;;;-1.00;99.90;;;;;;4925671;29;20069;-79
2023/01/27 06:20:48;;;;;;;25.42;11.82;;;-1.00;99.90;;;;;;4929441;29;20147;-78
2023/01/27 06:23:15;;;;;;;25.50;12.50;;;-1.00;99.90;;;;;;4929773;29;20142;-78
2023/01/27 06:25:46;;;;;;;28.08;13.07;;;-1.00;99.90;;;;;;4928794;29;20058;-78
2023/01/27 06:28:13;;;;;;;28.13;13.05;;;-1.00;99.90;;;;;;4925517;29;20042;-77
2023/01/27 06:30:39;;;;;;;29.33;13.00;;;-1.00;99.90;;;;;;4920222;29;20032;-78
2023/01/27 06:33:06;;;;;;;26.73;13.02;;;-1.00;99.90;;;;;;4921360;29;20038;-78
2023/01/27 06:35:33;;;;;;;29.58;14.63;;;-0.90;99.90;;;;;;4928653;29;20032;-78
2023/01/27 06:38:00;;;;;;;28.52;13.65;;;-0.90;99.90;;;;;;4928340;29;20846;-78
2023/01/27 06:40:27;;;;;;;28.50;13.20;;;-1.00;99.90;;;;;;4928382;29;20521;-78
2023/01/27 06:42:52;;;;;;;30.17;14.82;;;-1.00;99.90;;;;;;4926235;29;20484;-78
2023/01/27 06:45:18;;;;;;;33.95;14.90;;;-0.90;99.90;;;;;;4926773;29;20161;-77
2023/01/27 06:47:44;;;;;;;38.55;15.80;;;-0.90;99.90;;;;;;4931350;28;20024;-78
2023/01/27 06:50:10;;;;;;;36.67;14.35;;;-0.90;99.90;;;;;;4925234;29;20110;-78
2023/01/27 06:52:37;;;;;;;32.20;15.65;;;-0.90;99.90;;;;;;4930109;29;20063;-77
2023/01/27 06:55:04;;;;;;;32.25;15.57;;;-0.90;99.90;;;;;;4932204;29;20043;-77
2023/01/27 06:57:30;;;;;;;32.72;14.82;;;-0.80;99.90;;;;;;4932173;29;20039;-77
2023/01/27 06:59:55;;;;;;;27.38;14.52;;;-0.90;99.90;;;;;;4931970;29;20024;-78
2023/01/27 07:02:21;;;;;;;31.60;15.77;;;-0.90;99.90;;;;;;4936608;29;20031;-78
2023/01/27 07:04:47;;;;;;;30.42;15.10;;;-0.80;99.90;;;;;;4929373;29;20055;-78
2023/01/27 07:07:12;;;;;;;34.03;16.55;;;-0.90;99.90;;;;;;4934831;29;20481;-79
2023/01/27 07:09:38;;;;;;;31.33;14.68;;;-0.90;99.90;;;;;;4934909;28;20503;-79
2023/01/27 07:12:04;;;;;;;36.70;16.13;;;-0.90;99.90;;;;;;4950347;28;20028;-77
2023/01/27 07:14:29;;;;;;;29.90;13.88;;;-0.90;99.90;;;;;;4931564;29;20524;-78
2023/01/27 07:16:55;;;;;;;34.22;16.05;;;-1.00;99.90;;;;;;4930337;29;20210;-78
2023/01/27 07:19:21;;;;;;;31.48;16.52;;;-1.00;99.90;;;;;;4932362;29;20121;-78
2023/01/27 07:21:46;;;;;;;32.80;15.18;;;-0.90;99.90;;;;;;4933622;29;20404;-78
2023/01/27 07:24:12;;;;;;;35.30;16.35;;;-0.90;99.90;;;;;;4933529;29;20032;-76
2023/01/27 07:26:37;;;;;;;35.65;16.98;;;-0.90;99.90;;;;;;4934604;29;20031;-78
2023/01/27 07:29:03;;;;;;;36.28;17.98;;;-0.80;99.90;;;;;;4930527;29;20042;-77
2023/01/27 07:31:29;;;;;;;36.97;17.38;;;-0.80;99.90;;;;;;4932818;29;20133;-77
2023/01/27 07:33:55;;;;;;;33.05;16.08;;;-0.80;99.90;;;;;;4935846;29;20555;-77
2023/01/27 07:36:21;;;;;;;36.65;15.52;;;-0.70;99.90;;;;;;4932541;29;20054;-76
2023/01/27 07:38:49;;;;;;;34.85;15.18;;;-0.70;99.90;;;;;;4933765;29;20040;-76
2023/01/27 07:41:15;;;;;;;37.05;15.43;;;-0.70;99.90;;;;;;4949671;28;20027;-76
2023/01/27 07:43:42;;;;;;;34.50;14.90;;;-0.70;99.90;;;;;;4933481;29;20039;-78
2023/01/27 07:46:08;;;;;;;31.95;14.35;;;-0.80;99.90;;;;;;4928726;29;20016;-77
2023/01/27 07:48:33;;;;;;;32.28;16.08;;;-0.80;99.90;;;;;;4933267;29;20038;-77
2023/01/27 07:50:59;;;;;;;34.92;17.20;;;-0.80;99.90;;;;;;4931625;29;20091;-77
2023/01/27 07:53:24;;;;;;;37.22;17.33;;;-0.80;99.90;;;;;;4936277;29;20107;-78
2023/01/27 07:55:50;;;;;;;33.92;16.23;;;-0.80;99.90;;;;;;4936181;29;20094;-78
2023/01/27 07:58:16;;;;;;;35.00;16.83;;;-0.80;99.90;;;;;;4931066;29;20036;-78
2023/01/27 08:00:41;;;;;;;35.03;15.90;;;-0.90;99.90;;;;;;4933483;29;20032;-77
2023/01/27 08:03:17;;;;;;;36.58;17.67;;;-0.90;99.90;;;;;;4931770;29;20058;-78
2023/01/27 08:05:42;;;;;;;38.00;17.02;;;-0.90;99.90;;;;;;4931633;29;20074;-77
2023/01/27 08:08:08;;;;;;;35.67;16.33;;;-0.90;99.90;;;;;;4930125;29;20440;-78
2023/01/27 08:10:34;;;;;;;37.78;17.10;;;-0.90;99.90;;;;;;4929203;29;20029;-77
2023/01/27 08:12:59;;;;;;;36.53;17.52;;;-0.90;99.90;;;;;;4931962;29;20110;-77
2023/01/27 08:15:25;;;;;;;38.28;16.80;;;-0.90;99.90;;;;;;4931519;29;20035;-77
2023/01/27 08:17:55;;;;;;;37.95;16.95;;;-0.90;99.90;;;;;;4929935;29;20062;-77
2023/01/27 08:20:22;;;;;;;38.25;18.00;;;-0.90;99.90;;;;;;4949531;28;20031;-77
2023/01/27 08:22:47;;;;;;;40.88;18.80;;;-0.90;99.90;;;;;;4931663;29;20082;-77
2023/01/27 08:25:13;;;;;;;36.30;16.52;;;-0.90;99.90;;;;;;4931837;29;20032;-77
2023/01/27 08:27:39;;;;;;;31.33;14.63;;;-0.90;99.90;;;;;;4934666;29;20038;-77
2023/01/27 08:30:05;;;;;;;37.58;16.65;;;-0.90;99.90;;;;;;4928059;29;20116;-77
2023/01/27 08:32:32;;;;;;;34.92;14.93;;;-0.80;99.90;;;;;;4933760;29;20044;-77
2023/01/27 08:35:01;;;;;;;30.63;14.52;;;-0.80;99.90;;;;;;4931572;29;20035;-77
2023/01/27 08:37:26;;;;;;;31.80;14.70;;;-0.80;99.90;;;;;;4927743;29;20063;-77
2023/01/27 08:39:52;;;;;;;31.48;15.07;;;-0.80;99.90;;;;;;4929223;29;20484;-78
2023/01/27 08:42:18;;;;;;;31.85;15.00;;;-0.90;99.90;;;;;;4931369;29;20525;-78
2023/01/27 08:44:43;;;;;;;31.27;14.48;;;-0.90;99.90;;;;;;4931013;29;20036;-77
2023/01/27 08:47:09;;;;;;;30.30;14.20;;;-0.90;99.90;;;;;;4930942;29;20071;-77
2023/01/27 08:49:35;;;;;;;32.55;15.07;;;-0.90;99.90;;;;;;4930870;29;20032;-77
2023/01/27 08:52:00;;;;;;;31.27;14.10;;;-0.80;99.90;;;;;;4931043;29;20075;-77
2023/01/27 08:54:26;;;;;;;28.40;12.90;;;-0.80;99.90;;;;;;4932423;29;20152;-77
2023/01/27 08:56:51;;;;;;;30.33;13.32;;;-0.90;99.90;;;;;;4930545;29;20035;-77
2023/01/27 08:59:17;;;;;;;30.35;13.57;;;-0.80;99.90;;;;;;4932225;29;20027;-77
2023/01/27 09:01:43;;;;;;;29.45;13.60;;;-0.80;99.90;;;;;;4930983;29;20015;-78
2023/01/27 09:04:08;;;;;;;28.73;13.30;;;-0.80;99.90;;;;;;4928868;29;20020;-78
2023/01/27 09:06:34;;;;;;;25.13;12.60;;;-0.80;99.90;;;;;;4932857;29;20511;-78
2023/01/27 09:09:09;;;;;;;25.38;11.55;;;-0.80;99.90;;;;;;4929039;29;20027;-78
2023/01/27 09:11:37;;;;;;;25.35;11.07;;;-0.80;99.90;;;;;;4930092;29;20095;-77
2023/01/27 09:14:03;;;;;;;29.55;12.77;;;-0.80;99.90;;;;;;4929444;29;20028;-77
2023/01/27 09:16:29;;;;;;;25.77;11.85;;;-0.80;99.90;;;;;;4931381;29;20469;-77
2023/01/27 09:18:56;;;;;;;27.40;12.30;;;-0.90;99.90;;;;;;4929706;28;20052;-77
2023/01/27 09:21:22;;;;;;;27.98;12.82;;;-0.80;99.90;;;;;;4930662;29;20090;-77
2023/01/27 09:23:49;;;;;;;25.45;12.05;;;-0.80;99.90;;;;;;4930387;29;20035;-77
2023/01/27 09:26:14;;;;;;;23.95;11.18;;;-0.80;99.90;;;;;;4927863;29;20029;-77
2023/01/27 09:28:40;;;;;;;25.98;11.45;;;-0.80;99.90;;;;;;4940401;28;20028;-77
2023/01/27 09:31:08;;;;;;;25.05;12.30;;;-0.80;99.90;;;;;;4925877;29;20039;-77
2023/01/27 09:33:40;;;;;;;19.95;9.93;;;-0.80;99.90;;;;;;4930588;29;20382;-76
2023/01/27 09:36:13;;;;;;;21.90;10.93;;;-0.80;99.90;;;;;;4927560;29;20020;-77
2023/01/27 09:38:45;;;;;;;23.60;11.60;;;-0.80;99.90;;;;;;4925117;29;20511;-76
2023/01/27 09:41:34;;;;;;;25.42;10.35;;;-0.80;99.90;;;;;;4928424;29;20050;-77
2023/01/27 09:44:41;;;;;;;24.92;11.18;;;-0.80;99.90;;;;;;4942223;28;20046;-77
2023/01/27 09:47:25;;;;;;;21.13;10.20;;;-0.80;99.90;;;;;;4928618;29;20066;-77
2023/01/27 09:50:17;;;;;;;21.77;10.98;;;-0.80;99.90;;;;;;4928117;29;20062;-77
2023/01/27 09:53:12;;;;;;;24.80;12.07;;;-0.70;99.90;;;;;;4930336;29;20100;-78
2023/01/27 09:55:48;;;;;;;22.75;10.30;;;-0.70;99.90;;;;;;4929354;29;20023;-77
2023/01/27 09:58:33;;;;;;;29.17;11.90;;;-0.70;99.90;;;;;;4927012;29;20034;-77
2023/01/27 10:01:23;;;;;;;21.98;11.07;;;-0.70;99.90;;;;;;4932363;29;20023;-77
2023/01/27 10:04:02;;;;;;;20.95;10.00;;;-0.60;99.90;;;;;;4928754;29;20036;-78
2023/01/27 10:06:38;;;;;;;20.13;8.85;;;-0.60;99.90;;;;;;4929721;29;20044;-78
2023/01/27 10:09:09;;;;;;;19.30;8.85;;;-0.60;99.90;;;;;;4928285;29;20813;-78
2023/01/27 10:11:38;;;;;;;19.98;9.30;;;-0.60;99.90;;;;;;4929601;29;20519;-77
2023/01/27 10:14:35;;;;;;;22.30;10.02;;;-0.50;99.90;;;;;;4931091;29;20119;-79
2023/01/27 10:17:12;;;;;;;19.45;8.70;;;-0.50;99.90;;;;;;4927083;29;20042;-76
2023/01/27 10:19:58;;;;;;;19.50;9.60;;;-0.50;99.90;;;;;;4928903;29;20051;-77
2023/01/27 10:22:35;;;;;;;21.17;9.85;;;-0.50;99.90;;;;;;4929923;29;20037;-77
2023/01/27 10:25:35;;;;;;;18.73;9.15;;;-0.50;99.90;;;;;;4929622;29;20115;-78
2023/01/27 10:28:12;;;;;;;20.10;8.93;;;-0.50;99.90;;;;;;4931100;29;20496;-78
2023/01/27 10:30:46;;;;;;;20.25;9.05;;;-0.50;99.90;;;;;;4929567;29;20435;-78
2023/01/27 10:33:16;;;;;;;19.67;9.02;;;-0.50;99.90;;;;;;4937173;29;20051;-78
2023/01/27 10:35:57;;;;;;;17.30;8.73;;;-0.50;99.90;;;;;;4938470;29;20039;-77
2023/01/27 10:38:33;;;;;;;17.63;8.70;;;-0.50;99.90;;;;;;4933615;29;20174;-77
2023/01/27 10:41:41;;;;;;;15.60;7.53;;;-0.50;99.90;;;;;;4943481;29;20587;-76
2023/01/27 10:44:43;;;;;;;15.07;8.27;;;-0.50;99.90;;;;;;4938093;29;20448;-77
2023/01/27 10:47:23;;;;;;;19.02;9.35;;;-0.50;99.90;;;;;;4931487;29;20067;-77
2023/01/27 10:50:12;;;;;;;21.10;9.55;;;-0.50;99.90;;;;;;4929059;29;20056;-77
2023/01/27 10:52:45;;;;;;;20.08;9.77;;;-0.50;99.90;;;;;;4930504;29;20031;-78
2023/01/27 10:55:20;;;;;;;22.23;10.83;;;-0.50;99.90;;;;;;4932231;29;20027;-78
2023/01/27 10:58:05;;;;;;;25.10;11.02;;;-0.50;99.90;;;;;;4929823;29;20035;-77
2023/01/27 11:00:47;;;;;;;23.38;11.55;;;-0.50;99.90;;;;;;4926019;29;20035;-77
2023/01/27 11:03:28;;;;;;;26.90;12.32;;;-0.50;99.90;;;;;;4927224;29;20079;-77
2023/01/27 11:05:58;;;;;;;26.42;12.02;;;-0.50;99.90;;;;;;4927800;29;20038;-77
2023/01/27 11:08:31;;;;;;;30.70;12.55;;;-0.50;99.90;;;;;;4925630;29;20492;-78
2023/01/27 11:13:45;;;;;;;38.65;12.98;;;-0.50;99.90;;;;;;4927476;29;20424;-78
2023/01/27 11:16:18;;;;;;;32.67;13.40;;;-0.50;99.90;;;;;;4927666;29;20114;-76
2023/01/27 11:18:48;;;;;;;36.65;14.18;;;-0.50;99.90;;;;;;4923424;29;20042;-78
2023/01/27 11:21:27;;;;;;;32.25;13.10;;;-0.50;99.90;;;;;;4930193;29;20103;-78
2023/01/27 11:23:55;;;;;;;31.00;13.65;;;-0.50;99.90;;;;;;4926197;29;20032;-77
2023/01/27 11:26:43;;;;;;;28.65;12.88;;;-0.40;99.90;;;;;;4928477;29;20551;-78
2023/01/27 11:29:36;;;;;;;31.55;12.98;;;-0.50;99.90;;;;;;4928411;29;20062;-77
2023/01/27 11:32:46;;;;;;;30.37;12.40;;;-0.40;99.90;;;;;;4933093;29;20032;-76
2023/01/27 11:35:14;;;;;;;31.95;13.10;;;-0.40;99.90;;;;;;4931835;29;20062;-77
2023/01/27 11:37:46;;;;;;;27.75;11.93;;;-0.50;99.90;;;;;;4940115;29;20031;-78
2023/01/27 11:40:34;;;;;;;31.88;13.88;;;-0.50;99.90;;;;;;4943727;29;20016;-78
2023/01/27 11:43:01;;;;;;;28.00;12.40;;;-0.50;99.90;;;;;;4942752;29;20028;-78
2023/01/27 11:45:32;;;;;;;35.97;14.75;;;-0.40;99.90;;;;;;4942093;29;20028;-78
2023/01/27 11:48:01;;;;;;;28.20;13.38;;;-0.40;99.90;;;;;;4941554;29;20048;-77
2023/01/27 11:50:33;;;;;;;29.17;12.85;;;-0.40;99.90;;;;;;4940714;29;20100;-76
2023/01/27 11:53:23;;;;;;;31.33;12.13;;;-0.40;99.90;;;;;;4936976;29;20394;-77
2023/01/27 11:55:59;;;;;;;31.98;13.13;;;-0.40;99.90;;;;;;4933396;29;20028;-77
2023/01/27 11:58:51;;;;;;;32.22;14.20;;;-0.40;99.90;;;;;;4936651;29;20582;-77
2023/01/27 12:01:25;;;;;;;28.88;12.65;;;-0.30;99.90;;;;;;4952348;28;20028;-76
2023/01/27 12:04:10;;;;;;;31.63;13.00;;;-0.30;99.90;;;;;;4935125;29;20034;-78
2023/01/27 12:06:44;;;;;;;28.17;12.00;;;-0.30;99.90;;;;;;4929425;29;20102;-77
2023/01/27 12:09:36;;;;;;;27.67;12.43;;;-0.30;99.90;;;;;;4931380;29;20579;-77
2023/01/27 12:12:27;;;;;;;29.92;11.65;;;-0.20;99.90;;;;;;4936190;29;20040;-79
2023/01/27 12:14:58;;;;;;;29.35;11.75;;;-0.20;99.90;;;;;;4939421;29;20051;-78
2023/01/27 12:17:33;;;;;;;30.73;12.30;;;-0.20;99.90;;;;;;4936547;29;20026;-78
2023/01/27 12:20:05;;;;;;;29.65;13.18;;;-0.20;99.90;;;;;;4936664;29;20024;-78
2023/01/27 12:22:37;;;;;;;26.95;11.43;;;-0.20;99.90;;;;;;4931962;29;20048;-80
2023/01/27 12:25:12;;;;;;;28.85;12.27;;;-0.20;99.90;;;;;;4930995;29;20091;-78
2023/01/27 12:27:50;;;;;;;25.92;10.40;;;-0.10;99.90;;;;;;4932336;29;20035;-79
2023/01/27 12:30:35;;;;;;;25.98;11.48;;;-0.10;99.90;;;;;;4933516;28;20098;-79
2023/01/27 12:33:12;;;;;;;29.52;12.02;;;-0.10;99.90;;;;;;4932923;29;20169;-79
2023/01/27 12:35:39;;;;;;;30.63;12.82;;;-0.10;99.90;;;;;;4927979;29;20028;-78
2023/01/27 12:38:19;;;;;;;26.20;11.35;;;-0.10;99.90;;;;;;4925204;29;20031;-78
2023/01/27 12:40:46;;;;;;;25.38;11.00;;;-0.10;99.90;;;;;;4930878;29;20027;-79
2023/01/27 12:43:13;;;;;;;31.30;11.63;;;0.00;99.90;;;;;;4946598;28;20032;-78
2023/01/27 12:45:40;;;;;;;25.50;9.65;;;-0.10;99.90;;;;;;4930536;28;20020;-78
2023/01/27 12:48:09;;;;;;;26.42;11.40;;;0.00;99.90;;;;;;4937284;29;20034;-78
2023/01/27 12:50:36;;;;;;;27.52;11.43;;;-0.10;99.90;;;;;;4949041;29;20031;-78
2023/01/27 12:53:05;;;;;;;32.30;13.27;;;-0.10;99.90;;;;;;4936957;29;20038;-77
2023/01/27 12:55:33;;;;;;;21.80;10.45;;;-0.10;99.90;;;;;;4935340;29;20032;-78
2023/01/27 12:58:00;;;;;;;24.20;10.30;;;0.00;99.90;;;;;;4937180;29;20051;-77
2023/01/27 13:00:26;;;;;;;22.85;10.57;;;0.00;99.90;;;;;;4934467;29;20047;-77
2023/01/27 13:03:03;;;;;;;22.05;10.68;;;-0.10;99.90;;;;;;4936921;29;20107;-77
2023/01/27 13:05:38;;;;;;;20.92;9.52;;;-0.10;99.90;;;;;;4933381;29;20032;-79
2023/01/27 13:08:04;;;;;;;23.10;10.13;;;-0.10;99.90;;;;;;4930457;29;20464;-77
2023/01/27 13:10:30;;;;;;;21.73;9.32;;;-0.10;99.90;;;;;;4934601;29;20039;-78
2023/01/27 13:13:03;;;;;;;26.63;11.05;;;-0.10;99.90;;;;;;4931701;29;20578;-77
2023/01/27 13:15:30;;;;;;;26.42;10.98;;;-0.10;99.90;;;;;;4932265;29;20078;-79
2023/01/27 13:21:23;;;;;;;26.42;10.90;;;-0.10;99.90;;;;;;4927852;29;20106;-77